Time;durP1;ratioP1;P1;durP2;ratioP2;P2;SDS_P1;SDS_P2;PMS_P1;PMS_P2;Temp;Humidity;BMP_temperature;BMP_pressure;BME280_temperature;BME280_humidity;BME280_pressure;Samples;Min_cycle;Max_cycle;Signal;HPM_P1;HPM_P2
2021/09/05 00:00:58;;;;;;;0.00;0.00;;;17.10;99.90;;;;;;5098191;28;20036;-92
2021/09/05 00:03:24;;;;;;;0.20;0.20;;;17.00;99.90;;;;;;5102845;28;20098;-89
2021/09/05 00:05:49;;;;;;;0.17;0.17;;;16.90;99.90;;;;;;5101097;28;20038;-89
2021/09/05 00:08:15;;;;;;;0.00;0.00;;;16.80;99.90;;;;;;5105884;28;20198;-91
2021/09/05 00:10:41;;;;;;;0.47;0.47;;;16.90;99.90;;;;;;5101283;28;20391;-91
2021/09/05 00:13:06;;;;;;;4.50;2.00;;;16.80;99.90;;;;;;5101132;28;20035;-92
2021/09/05 00:15:32;;;;;;;0.53;0.37;;;16.80;99.90;;;;;;5103198;28;20081;-91
2021/09/05 00:17:58;;;;;;;0.70;0.70;;;16.80;99.90;;;;;;5100960;28;20055;-90
2021/09/05 00:20:24;;;;;;;2.40;0.60;;;16.60;99.90;;;;;;5101106;28;21600;-90
2021/09/05 00:22:49;;;;;;;0.30;0.30;;;16.60;99.90;;;;;;5101787;27;20030;-89
2021/09/05 00:25:16;;;;;;;0.40;0.40;;;16.50;99.90;;;;;;5101080;28;20056;-89
2021/09/05 00:27:41;;;;;;;0.10;0.10;;;16.50;99.90;;;;;;5101546;28;20039;-90
2021/09/05 00:30:08;;;;;;;0.60;0.57;;;16.50;99.90;;;;;;5103404;28;20027;-90
2021/09/05 00:32:34;;;;;;;0.40;0.40;;;16.50;99.90;;;;;;5105122;27;20020;-90
2021/09/05 00:34:59;;;;;;;0.27;0.23;;;16.50;99.90;;;;;;5104593;28;20108;-89
2021/09/05 00:37:25;;;;;;;0.23;0.23;;;16.40;99.90;;;;;;5103918;28;20032;-89
2021/09/05 00:39:51;;;;;;;0.20;0.20;;;16.30;99.90;;;;;;5107790;27;20069;-90
2021/09/05 00:42:27;;;;;;;0.33;0.33;;;16.30;99.90;;;;;;5102700;28;20062;-90
2021/09/05 00:44:54;;;;;;;0.20;0.20;;;16.40;99.90;;;;;;5104985;27;20036;-90
2021/09/05 00:47:20;;;;;;;;;;;16.30;99.90;;;;;;5104448;28;20028;-90
2021/09/05 00:49:46;;;;;;;1.15;0.98;;;16.30;99.90;;;;;;5104676;27;20381;-91
2021/09/05 00:52:14;;;;;;;0.20;0.20;;;16.40;99.90;;;;;;5103487;28;20803;-90
2021/09/05 00:54:42;;;;;;;0.10;0.10;;;16.40;99.90;;;;;;5101019;27;20036;-90
2021/09/05 00:57:15;;;;;;;1.13;0.38;;;16.40;99.90;;;;;;5105062;27;20050;-92
2021/09/05 00:59:42;;;;;;;0.30;0.30;;;16.40;99.90;;;;;;5104354;27;20031;-92
2021/09/05 01:02:08;;;;;;;0.20;0.20;;;16.40;99.90;;;;;;5107246;27;20061;-91
2021/09/05 01:04:35;;;;;;;0.40;0.38;;;16.30;99.90;;;;;;5107507;28;20028;-92
2021/09/05 01:07:01;;;;;;;0.30;0.30;;;16.40;99.90;;;;;;5107417;28;20056;-94
2021/09/05 01:09:28;;;;;;;0.45;0.45;;;16.40;99.90;;;;;;5109429;28;20032;-93
2021/09/05 01:11:59;;;;;;;0.35;0.35;;;16.40;99.90;;;;;;5106640;28;20031;-93
2021/09/05 01:14:25;;;;;;;0.95;0.57;;;16.40;99.90;;;;;;5106750;28;20039;-92
2021/09/05 01:16:51;;;;;;;0.70;0.55;;;16.50;99.90;;;;;;5104094;28;20027;-93
2021/09/05 01:19:20;;;;;;;0.15;0.15;;;16.50;99.90;;;;;;5107211;27;20043;-92
2021/09/05 01:21:47;;;;;;;1.10;0.30;;;16.40;99.90;;;;;;5106554;27;20066;-92
2021/09/05 01:24:14;;;;;;;0.28;0.28;;;16.40;99.90;;;;;;5106298;27;20024;-90
2021/09/05 01:26:44;;;;;;;0.52;0.52;;;16.40;99.90;;;;;;5106577;28;20587;-92
2021/09/05 01:29:10;;;;;;;0.40;0.40;;;16.30;99.90;;;;;;5106028;28;20254;-90
2021/09/05 01:31:42;;;;;;;0.52;0.52;;;16.30;99.90;;;;;;5103590;27;20035;-92
2021/09/05 01:34:10;;;;;;;0.40;0.40;;;16.30;99.90;;;;;;5109436;27;20027;-91
2021/09/05 01:36:37;;;;;;;0.50;0.50;;;16.30;99.90;;;;;;5103950;27;20041;-91
2021/09/05 01:39:06;;;;;;;0.10;0.10;;;16.30;99.90;;;;;;5097647;27;20456;-90
2021/09/05 01:41:32;;;;;;;0.25;0.25;;;16.40;99.90;;;;;;5103511;28;20583;-90
2021/09/05 01:43:59;;;;;;;0.10;0.10;;;16.40;99.90;;;;;;5102539;28;20028;-90
2021/09/05 01:46:25;;;;;;;0.47;0.47;;;16.40;99.90;;;;;;5104164;28;20023;-89
2021/09/05 01:48:51;;;;;;;0.30;0.30;;;16.50;99.90;;;;;;5102087;27;20131;-89
2021/09/05 01:51:17;;;;;;;0.40;0.40;;;16.40;99.90;;;;;;5102967;28;20038;-90
2021/09/05 01:53:43;;;;;;;0.10;0.10;;;16.30;99.90;;;;;;5105427;27;20110;-90
2021/09/05 01:56:09;;;;;;;0.27;0.27;;;16.30;99.90;;;;;;5102203;27;20057;-91
2021/09/05 01:58:34;;;;;;;0.20;0.20;;;16.20;99.90;;;;;;5101606;28;20035;-89
2021/09/05 02:01:00;;;;;;;0.33;0.33;;;16.10;99.90;;;;;;5101648;28;20035;-90
2021/09/05 02:03:25;;;;;;;1.43;0.47;;;16.10;99.90;;;;;;5101008;28;20039;-90
2021/09/05 02:05:51;;;;;;;0.30;0.30;;;16.10;99.90;;;;;;5102081;27;20564;-90
2021/09/05 02:08:17;;;;;;;0.20;0.20;;;16.20;99.90;;;;;;5095093;28;20808;-89
2021/09/05 02:10:43;;;;;;;0.10;0.10;;;16.20;99.90;;;;;;5099346;27;20032;-89
2021/09/05 02:13:09;;;;;;;0.73;0.73;;;16.30;99.90;;;;;;5101777;28;20035;-90
2021/09/05 02:15:34;;;;;;;0.17;0.17;;;16.10;99.90;;;;;;5101970;28;20067;-91
2021/09/05 02:18:00;;;;;;;0.20;0.20;;;16.10;99.90;;;;;;5101128;28;20684;-91
2021/09/05 02:20:26;;;;;;;0.43;0.43;;;16.00;99.90;;;;;;5098887;27;20044;-90
2021/09/05 02:22:51;;;;;;;0.47;0.47;;;16.00;99.90;;;;;;5101708;27;20061;-90
2021/09/05 02:25:17;;;;;;;0.10;0.10;;;16.00;99.90;;;;;;5105564;27;20114;-90
2021/09/05 02:27:43;;;;;;;2.97;0.73;;;15.90;99.90;;;;;;5104079;27;20105;-88
2021/09/05 02:30:10;;;;;;;0.30;0.30;;;15.90;99.90;;;;;;5101231;28;20031;-90
2021/09/05 02:32:36;;;;;;;0.10;0.10;;;15.80;99.90;;;;;;5104101;27;20031;-91
2021/09/05 02:35:03;;;;;;;0.55;0.50;;;15.70;99.90;;;;;;5102224;28;20089;-90
2021/09/05 02:37:29;;;;;;;0.88;0.88;;;15.70;99.90;;;;;;5104074;27;20039;-89
2021/09/05 02:39:55;;;;;;;0.00;0.00;;;15.70;99.90;;;;;;5101347;28;20039;-89
2021/09/05 02:42:20;;;;;;;0.10;0.10;;;15.60;99.90;;;;;;5100336;28;20031;-92
2021/09/05 02:44:46;;;;;;;0.30;0.30;;;15.70;99.90;;;;;;5102047;28;20040;-89
2021/09/05 02:47:12;;;;;;;0.30;0.20;;;15.60;99.90;;;;;;5101731;28;20059;-90
2021/09/05 02:49:37;;;;;;;0.30;0.30;;;15.60;99.90;;;;;;5103430;27;20047;-90
2021/09/05 02:52:05;;;;;;;0.30;0.17;;;15.60;99.90;;;;;;5100348;28;20176;-91
2021/09/05 02:54:31;;;;;;;0.28;0.28;;;15.50;99.90;;;;;;5103355;28;20031;-89
2021/09/05 02:56:57;;;;;;;0.20;0.20;;;15.50;99.90;;;;;;5100374;28;20658;-89
2021/09/05 02:59:22;;;;;;;0.47;0.30;;;15.50;99.90;;;;;;5100814;28;20035;-90
2021/09/05 03:01:48;;;;;;;0.17;0.17;;;15.50;99.90;;;;;;5098807;28;20565;-91
2021/09/05 03:04:14;;;;;;;0.50;0.50;;;15.40;99.90;;;;;;5110252;27;20521;-91
2021/09/05 03:06:39;;;;;;;0.30;0.30;;;15.40;99.90;;;;;;5105222;28;20039;-90
2021/09/05 03:09:05;;;;;;;1.30;0.67;;;15.50;99.90;;;;;;5106467;27;20123;-91
2021/09/05 03:11:31;;;;;;;0.30;0.30;;;15.50;99.90;;;;;;5104447;28;20297;-90
2021/09/05 03:13:57;;;;;;;0.20;0.20;;;15.40;99.90;;;;;;5104085;28;20027;-90
2021/09/05 03:16:22;;;;;;;0.20;0.20;;;15.40;99.90;;;;;;5105971;27;20024;-90
2021/09/05 03:18:48;;;;;;;1.70;0.50;;;15.30;99.90;;;;;;5108797;27;20035;-91
2021/09/05 03:21:14;;;;;;;0.37;0.37;;;15.40;99.90;;;;;;5103810;27;20393;-91
2021/09/05 03:23:39;;;;;;;0.17;0.17;;;15.40;99.90;;;;;;5094510;27;20040;-91
2021/09/05 03:26:05;;;;;;;0.67;0.67;;;15.40;99.90;;;;;;5106534;27;20031;-91
2021/09/05 03:28:31;;;;;;;0.73;0.60;;;15.30;99.90;;;;;;5102521;27;20020;-90
2021/09/05 03:30:56;;;;;;;0.20;0.20;;;15.30;99.90;;;;;;5106514;28;20027;-90
2021/09/05 03:33:22;;;;;;;0.40;0.20;;;15.20;99.90;;;;;;5104473;28;20120;-90
2021/09/05 03:35:48;;;;;;;1.50;1.40;;;15.20;1.00;;;;;;5091040;28;20028;-90
2021/09/05 03:38:13;;;;;;;0.83;0.60;;;15.20;1.00;;;;;;5090538;28;20560;-92
2021/09/05 03:40:39;;;;;;;0.77;0.73;;;15.30;1.00;;;;;;5099203;28;20111;-90
2021/09/05 03:43:05;;;;;;;0.40;0.40;;;15.30;1.00;;;;;;5104335;28;20533;-90
2021/09/05 03:45:30;;;;;;;0.40;0.40;;;15.30;1.00;;;;;;5109107;28;20056;-92
2021/09/05 03:47:56;;;;;;;0.00;0.00;;;15.20;1.00;;;;;;5103578;28;20019;-91
2021/09/05 03:50:21;;;;;;;1.40;0.50;;;15.20;1.00;;;;;;5101796;28;20081;-90
2021/09/05 03:52:47;;;;;;;0.53;0.53;;;15.10;1.00;;;;;;5101425;28;20073;-91
2021/09/05 03:55:13;;;;;;;0.37;0.37;;;15.00;1.00;;;;;;5102164;28;20460;-92
2021/09/05 03:57:38;;;;;;;0.67;0.50;;;15.00;1.00;;;;;;5107129;28;20061;-91
2021/09/05 04:00:05;;;;;;;0.10;0.10;;;15.00;5.10;;;;;;5102939;28;20043;-90
2021/09/05 04:02:30;;;;;;;0.50;0.50;;;15.00;10.10;;;;;;5106423;28;20028;-90
2021/09/05 04:04:56;;;;;;;0.30;0.30;;;14.90;19.40;;;;;;5104169;28;20112;-91
2021/09/05 04:07:22;;;;;;;0.60;0.60;;;14.80;21.10;;;;;;5108210;27;20102;-91
2021/09/05 04:12:32;;;;;;;1.38;1.35;;;14.80;91.30;;;;;;5121033;27;20087;-89
2021/09/05 04:14:57;;;;;;;0.40;0.40;;;14.80;99.90;;;;;;5112784;27;20027;-89
2021/09/05 04:17:23;;;;;;;0.30;0.20;;;14.70;99.90;;;;;;5104985;27;20032;-89
2021/09/05 04:19:49;;;;;;;0.13;0.13;;;14.70;99.90;;;;;;5089428;28;20074;-90
2021/09/05 04:22:14;;;;;;;0.30;0.30;;;14.70;99.90;;;;;;5105320;27;20568;-90
2021/09/05 04:24:40;;;;;;;1.00;0.40;;;14.70;99.90;;;;;;5107959;27;20564;-91
2021/09/05 04:27:06;;;;;;;0.37;0.37;;;14.70;99.90;;;;;;5105427;27;20035;-91
2021/09/05 04:29:32;;;;;;;0.60;0.50;;;14.70;99.90;;;;;;5105152;27;20462;-89
2021/09/05 04:31:57;;;;;;;0.20;0.20;;;14.70;99.90;;;;;;5108326;27;20508;-90
2021/09/05 04:34:23;;;;;;;1.20;0.53;;;14.70;99.90;;;;;;5106777;28;20285;-90
2021/09/05 04:36:49;;;;;;;0.10;0.10;;;14.80;99.90;;;;;;5109196;27;20031;-88
2021/09/05 04:39:14;;;;;;;0.30;0.30;;;14.70;99.90;;;;;;5111256;27;20042;-90
2021/09/05 04:41:40;;;;;;;0.50;0.50;;;14.60;99.90;;;;;;5099095;27;20141;-90
2021/09/05 04:44:06;;;;;;;0.20;0.20;;;14.60;99.90;;;;;;5105792;27;20028;-91
2021/09/05 04:46:31;;;;;;;0.60;0.60;;;14.60;99.90;;;;;;5107375;27;20092;-91
2021/09/05 04:48:57;;;;;;;0.10;0.10;;;14.50;99.90;;;;;;5106667;28;20522;-89
2021/09/05 04:51:23;;;;;;;0.50;0.50;;;14.50;99.90;;;;;;5107939;27;20810;-90
2021/09/05 04:53:48;;;;;;;0.33;0.33;;;14.60;99.90;;;;;;5105364;28;20422;-89
2021/09/05 04:56:14;;;;;;;0.40;0.40;;;14.50;99.90;;;;;;5105460;27;20035;-91
2021/09/05 04:58:41;;;;;;;34.00;0.93;;;14.40;99.90;;;;;;5102807;27;20038;-88
2021/09/05 05:01:06;;;;;;;0.20;0.20;;;14.50;99.90;;;;;;5103483;27;20115;-90
2021/09/05 05:03:32;;;;;;;0.40;0.40;;;14.50;99.90;;;;;;5106399;28;20643;-89
2021/09/05 05:05:57;;;;;;;0.10;0.10;;;14.50;99.90;;;;;;5105395;28;20072;-90
2021/09/05 05:08:23;;;;;;;0.20;0.20;;;14.50;99.90;;;;;;5106169;27;20036;-90
2021/09/05 05:10:49;;;;;;;0.17;0.17;;;14.50;99.90;;;;;;5103655;28;20508;-89
2021/09/05 05:13:15;;;;;;;0.53;0.30;;;14.40;99.90;;;;;;5106706;27;20498;-89
2021/09/05 05:15:40;;;;;;;0.40;0.27;;;14.40;99.90;;;;;;5098621;27;20059;-90
2021/09/05 05:18:06;;;;;;;0.40;0.30;;;14.50;99.90;;;;;;5102386;27;20028;-89
2021/09/05 05:20:32;;;;;;;0.30;0.30;;;14.50;99.90;;;;;;5103913;28;20108;-90
2021/09/05 05:22:57;;;;;;;0.30;0.30;;;14.50;99.90;;;;;;5108325;27;20027;-90
2021/09/05 05:25:24;;;;;;;0.27;0.27;;;14.50;99.90;;;;;;5106111;27;20509;-89
2021/09/05 05:27:49;;;;;;;0.43;0.30;;;14.50;99.90;;;;;;5104942;28;20860;-88
2021/09/05 05:30:15;;;;;;;0.00;0.00;;;14.60;99.90;;;;;;5102863;27;20032;-90
2021/09/05 05:32:41;;;;;;;0.03;0.03;;;14.60;99.90;;;;;;5098710;28;20086;-90
2021/09/05 05:35:07;;;;;;;0.20;0.20;;;14.70;93.00;;;;;;5105409;27;20581;-89
2021/09/05 05:37:33;;;;;;;0.10;0.10;;;14.80;1.00;;;;;;5105769;27;20031;-92
2021/09/05 05:40:00;;;;;;;0.10;0.10;;;15.20;99.90;;;;;;5106849;27;20036;-93
2021/09/05 05:42:25;;;;;;;0.20;0.20;;;15.90;99.90;;;;;;5104172;27;20134;-89
2021/09/05 05:44:51;;;;;;;0.17;0.17;;;16.40;99.90;;;;;;5102419;28;20114;-89
2021/09/05 05:47:17;;;;;;;0.20;0.20;;;16.80;99.90;;;;;;5102662;28;20031;-89
2021/09/05 05:49:46;;;;;;;0.23;0.23;;;17.30;99.90;;;;;;5101438;28;20056;-88
2021/09/05 05:52:13;;;;;;;0.03;0.03;;;17.50;99.90;;;;;;5103322;28;20484;-91
2021/09/05 05:54:38;;;;;;;;;;;18.30;99.90;;;;;;5103512;28;20110;-89
2021/09/05 05:57:04;;;;;;;17.67;0.73;;;18.20;99.90;;;;;;5108612;27;20026;-89
2021/09/05 05:59:30;;;;;;;0.40;0.30;;;17.90;99.90;;;;;;5102872;27;20301;-90
2021/09/05 06:01:56;;;;;;;0.30;0.20;;;18.10;99.90;;;;;;5105295;27;20026;-89
2021/09/05 06:04:22;;;;;;;0.32;0.30;;;18.70;99.90;;;;;;5103251;27;20838;-89
2021/09/05 06:06:47;;;;;;;0.10;0.10;;;19.10;99.90;;;;;;5103812;28;20040;-89
2021/09/05 06:09:15;;;;;;;0.20;0.20;;;19.20;99.90;;;;;;5100303;28;20027;-89
2021/09/05 06:11:41;;;;;;;4.28;0.95;;;19.60;99.90;;;;;;5102808;28;20031;-88
2021/09/05 06:14:06;;;;;;;0.60;0.60;;;19.70;99.90;;;;;;5104170;28;20502;-91
2021/09/05 06:16:32;;;;;;;0.30;0.20;;;20.00;99.90;;;;;;5102789;27;20034;-90
2021/09/05 06:18:57;;;;;;;0.60;0.33;;;19.80;99.90;;;;;;5102443;28;20036;-89
2021/09/05 06:21:23;;;;;;;0.00;0.00;;;20.50;99.90;;;;;;5109383;27;20057;-85
2021/09/05 06:23:49;;;;;;;0.30;0.30;;;19.90;99.90;;;;;;5103063;27;20146;-86
2021/09/05 06:26:15;;;;;;;0.10;0.10;;;19.50;99.90;;;;;;5098211;28;20119;-86
2021/09/05 06:28:40;;;;;;;0.30;0.30;;;19.30;99.90;;;;;;5100127;28;20064;-87
2021/09/05 06:31:06;;;;;;;0.00;0.00;;;19.30;99.90;;;;;;5111000;27;20405;-88
2021/09/05 06:33:32;;;;;;;0.07;0.07;;;19.50;99.90;;;;;;5089635;28;20090;-88
2021/09/05 06:35:57;;;;;;;3.63;1.23;;;19.50;99.90;;;;;;5095910;28;20028;-88
2021/09/05 06:38:23;;;;;;;0.03;0.03;;;20.40;99.90;;;;;;5098576;28;20405;-85
2021/09/05 06:40:48;;;;;;;0.30;0.30;;;20.90;99.90;;;;;;5099474;28;20073;-86
2021/09/05 06:43:14;;;;;;;0.13;0.13;;;20.30;99.90;;;;;;5110148;27;20040;-86
2021/09/05 06:45:40;;;;;;;0.32;0.32;;;19.70;99.90;;;;;;5103358;28;20517;-95
2021/09/05 06:48:06;;;;;;;0.00;0.00;;;22.00;99.90;;;;;;5095906;28;20044;-92
2021/09/05 06:50:32;;;;;;;0.53;0.33;;;22.40;99.90;;;;;;5094099;28;20287;-91
2021/09/05 06:52:57;;;;;;;0.10;0.10;;;23.10;99.90;;;;;;5100269;28;20097;-93
2021/09/05 06:55:23;;;;;;;0.40;0.30;;;24.00;99.90;;;;;;5104577;28;20028;-93
2021/09/05 06:57:49;;;;;;;0.23;0.23;;;24.30;99.90;;;;;;5101559;28;20492;-92
2021/09/05 07:00:14;;;;;;;0.00;0.00;;;24.00;99.90;;;;;;5100441;28;20080;-90
2021/09/05 07:02:40;;;;;;;0.20;0.20;;;22.60;99.90;;;;;;5098990;28;20382;-91
2021/09/05 07:05:06;;;;;;;0.00;0.00;;;23.80;99.90;;;;;;5100980;28;20040;-93
2021/09/05 07:07:32;;;;;;;0.10;0.10;;;24.80;99.90;;;;;;5095939;28;20066;-95
2021/09/05 07:09:58;;;;;;;0.23;0.23;;;25.80;99.90;;;;;;5103353;28;20024;-93
2021/09/05 07:12:23;;;;;;;0.00;0.00;;;22.40;99.90;;;;;;5091634;28;20036;-94
2021/09/05 07:14:49;;;;;;;0.10;0.10;;;20.20;99.90;;;;;;5099131;28;20031;-93
2021/09/05 07:17:14;;;;;;;0.20;0.20;;;20.00;99.90;;;;;;5103468;27;20032;-92
2021/09/05 07:19:40;;;;;;;0.00;0.00;;;20.20;99.90;;;;;;5101546;28;20075;-92
2021/09/05 07:22:06;;;;;;;0.30;0.30;;;20.70;99.90;;;;;;5098596;28;20028;-92
2021/09/05 07:24:32;;;;;;;0.10;0.10;;;23.00;99.90;;;;;;5098147;28;20091;-93
2021/09/05 07:26:57;;;;;;;0.00;0.00;;;25.90;99.90;;;;;;5095480;28;20661;-92
2021/09/05 07:29:23;;;;;;;0.65;0.20;;;26.40;99.90;;;;;;5102412;28;20421;-94
2021/09/05 07:31:49;;;;;;;0.23;0.17;;;26.50;99.90;;;;;;5095741;28;20082;-91
2021/09/05 07:34:15;;;;;;;0.00;0.00;;;26.70;99.90;;;;;;5103503;28;20584;-91
2021/09/05 07:36:41;;;;;;;0.17;0.17;;;27.10;98.50;;;;;;5087386;28;20480;-93
2021/09/05 07:39:10;;;;;;;0.00;0.00;;;26.90;99.70;;;;;;5105218;28;20040;-93
2021/09/05 07:41:36;;;;;;;0.00;0.00;;;27.80;97.30;;;;;;5104984;28;20027;-91
2021/09/05 07:44:02;;;;;;;0.00;0.00;;;26.90;97.80;;;;;;5107584;27;20027;-92
2021/09/05 07:46:28;;;;;;;0.20;0.20;;;27.10;95.40;;;;;;5099976;28;20077;-91
2021/09/05 07:48:53;;;;;;;0.20;0.10;;;27.80;95.80;;;;;;5110133;28;20035;-95
2021/09/05 07:51:23;;;;;;;5.18;0.52;;;28.90;92.80;;;;;;5102446;28;20038;-93
2021/09/05 07:53:50;;;;;;;0.25;0.25;;;27.30;94.00;;;;;;5100421;28;20028;-90
2021/09/05 07:56:16;;;;;;;0.00;0.00;;;28.50;93.30;;;;;;5091503;28;20060;-93
2021/09/05 07:58:42;;;;;;;0.10;0.10;;;27.50;93.00;;;;;;5106714;27;20173;-92
2021/09/05 08:01:07;;;;;;;0.00;0.00;;;28.30;91.20;;;;;;5127105;27;20065;-90
2021/09/05 08:03:37;;;;;;;0.20;0.05;;;27.90;91.70;;;;;;5105091;27;20110;-92
2021/09/05 08:06:03;;;;;;;0.10;0.10;;;29.20;90.40;;;;;;5099492;27;20069;-91
2021/09/05 08:08:29;;;;;;;0.77;0.57;;;29.30;86.50;;;;;;5096121;27;20506;-93
2021/09/05 08:10:55;;;;;;;0.00;0.00;;;29.50;84.30;;;;;;5097419;28;20055;-92
2021/09/05 08:13:20;;;;;;;0.00;0.00;;;31.30;78.90;;;;;;5106366;27;20410;-92
2021/09/05 08:15:46;;;;;;;0.00;0.00;;;31.40;74.50;;;;;;5087276;28;20509;-89
2021/09/05 08:18:11;;;;;;;0.35;0.35;;;32.50;71.70;;;;;;5101055;28;20031;-89
2021/09/05 08:20:37;;;;;;;0.00;0.00;;;32.70;65.80;;;;;;5102009;28;20402;-89
2021/09/05 08:23:03;;;;;;;0.00;0.00;;;33.80;62.40;;;;;;5102885;28;20024;-87
2021/09/05 08:25:29;;;;;;;0.20;0.10;;;31.60;66.60;;;;;;5102410;28;20077;-87
2021/09/05 08:27:55;;;;;;;0.32;0.32;;;31.30;63.80;;;;;;5114480;27;20027;-88
2021/09/05 08:30:21;;;;;;;0.00;0.00;;;32.50;64.20;;;;;;5100349;28;20030;-88
2021/09/05 08:32:47;;;;;;;0.10;0.10;;;33.70;56.50;;;;;;5100622;28;20414;-92
2021/09/05 08:35:13;;;;;;;0.20;0.20;;;32.90;57.40;;;;;;5099346;28;20565;-86
2021/09/05 08:37:40;;;;;;;0.73;0.55;;;32.90;53.80;;;;;;5103612;27;20554;-91
2021/09/05 08:40:07;;;;;;;0.00;0.00;;;33.30;51.40;;;;;;5109912;27;20050;-92
2021/09/05 08:42:34;;;;;;;0.00;0.00;;;32.90;54.10;;;;;;5095074;28;20085;-92
2021/09/05 08:45:02;;;;;;;0.52;0.10;;;32.50;52.50;;;;;;5095347;28;20137;-92
2021/09/05 08:47:33;;;;;;;0.17;0.17;;;33.10;53.20;;;;;;5097760;28;20028;-91
2021/09/05 08:50:02;;;;;;;0.10;0.10;;;36.70;47.00;;;;;;5101973;28;20024;-90
2021/09/05 08:52:28;;;;;;;0.10;0.10;;;35.30;45.20;;;;;;5105779;27;20039;-91
2021/09/05 08:54:53;;;;;;;0.00;0.00;;;35.10;43.10;;;;;;5107443;27;20024;-92
2021/09/05 08:57:19;;;;;;;0.25;0.20;;;34.60;43.80;;;;;;5105222;27;20038;-93
2021/09/05 08:59:45;;;;;;;0.00;0.00;;;34.80;37.90;;;;;;5102547;28;20899;-90
2021/09/05 09:02:10;;;;;;;0.30;0.20;;;36.40;36.30;;;;;;5102861;28;20042;-90
2021/09/05 09:04:38;;;;;;;0.38;0.35;;;36.40;39.30;;;;;;5103163;28;20410;-90
2021/09/05 09:07:22;;;;;;;0.10;0.10;;;38.20;36.10;;;;;;5102071;28;20051;-90
2021/09/05 09:09:59;;;;;;;0.00;0.00;;;37.20;31.30;;;;;;5102699;28;20028;-91
2021/09/05 09:12:39;;;;;;;0.05;0.05;;;37.90;29.80;;;;;;5100357;28;20035;-90
2021/09/05 09:15:26;;;;;;;0.10;0.10;;;37.50;32.90;;;;;;5097422;28;20069;-90
2021/09/05 09:18:03;;;;;;;0.00;0.00;;;37.20;31.60;;;;;;5095067;28;20031;-91
2021/09/05 09:20:41;;;;;;;0.35;0.17;;;35.90;28.60;;;;;;5097269;28;20088;-89
2021/09/05 09:23:18;;;;;;;0.13;0.13;;;37.70;28.40;;;;;;5105254;27;20028;-91
2021/09/05 09:26:04;;;;;;;0.00;0.00;;;36.10;26.30;;;;;;5101639;28;20031;-89
2021/09/05 09:28:44;;;;;;;0.08;0.08;;;35.70;28.10;;;;;;5101928;28;20030;-90
2021/09/05 09:31:25;;;;;;;0.00;0.00;;;36.90;27.20;;;;;;5097827;28;20471;-89
2021/09/05 09:33:53;;;;;;;0.00;0.00;;;37.60;24.80;;;;;;5102703;27;20042;-88
2021/09/05 09:36:24;;;;;;;0.10;0.10;;;36.70;22.70;;;;;;5101329;27;20034;-90
2021/09/05 09:38:56;;;;;;;0.10;0.10;;;38.40;26.30;;;;;;5092504;27;20039;-89
2021/09/05 09:41:22;;;;;;;0.10;0.10;;;38.90;20.90;;;;;;5107370;27;20027;-91
2021/09/05 09:44:01;;;;;;;0.03;0.03;;;38.60;18.90;;;;;;5104487;28;20401;-91
2021/09/05 09:46:29;;;;;;;0.10;0.08;;;37.00;21.20;;;;;;5100891;28;20122;-90
2021/09/05 09:49:09;;;;;;;0.00;0.00;;;38.20;20.10;;;;;;5104347;28;20045;-91
2021/09/05 09:51:35;;;;;;;0.05;0.05;;;38.20;15.90;;;;;;5102501;28;20020;-93
2021/09/05 09:54:02;;;;;;;0.10;0.10;;;37.80;16.50;;;;;;5101345;28;20032;-93
2021/09/05 09:56:28;;;;;;;1.48;0.32;;;37.40;15.80;;;;;;5098498;27;20032;-90
2021/09/05 09:58:58;;;;;;;0.00;0.00;;;39.50;14.80;;;;;;5100834;28;20051;-88
2021/09/05 10:01:26;;;;;;;0.45;0.03;;;41.10;10.80;;;;;;5097005;28;20027;-91
2021/09/05 10:03:54;;;;;;;0.10;0.10;;;41.50;10.90;;;;;;5103232;28;20028;-89
2021/09/05 10:06:28;;;;;;;0.10;0.10;;;41.20;11.80;;;;;;5102266;28;20126;-91
2021/09/05 10:09:01;;;;;;;0.20;0.20;;;38.00;11.80;;;;;;5098775;28;20050;-90
2021/09/05 10:11:27;;;;;;;0.03;0.03;;;38.10;18.50;;;;;;5097420;28;20031;-90
2021/09/05 10:13:55;;;;;;;0.80;0.20;;;37.60;20.80;;;;;;5099844;28;20321;-90
2021/09/05 10:16:21;;;;;;;0.10;0.10;;;38.00;16.20;;;;;;5097098;28;20399;-91
2021/09/05 10:18:49;;;;;;;0.43;0.23;;;39.20;12.80;;;;;;5097339;28;20040;-86
2021/09/05 10:21:17;;;;;;;0.30;0.10;;;39.60;12.20;;;;;;5098165;27;20328;-86
2021/09/05 10:24:01;;;;;;;0.63;0.45;;;37.00;15.40;;;;;;5100235;28;20020;-88
2021/09/05 10:26:27;;;;;;;0.13;0.10;;;34.70;19.60;;;;;;5097704;28;20585;-87
2021/09/05 10:28:57;;;;;;;0.47;0.28;;;34.50;18.50;;;;;;5094506;28;20042;-85
2021/09/05 10:31:28;;;;;;;0.73;0.20;;;36.20;18.00;;;;;;5096077;28;20429;-87
2021/09/05 10:33:55;;;;;;;0.00;0.00;;;36.70;21.70;;;;;;5094463;27;20031;-88
2021/09/05 10:36:24;;;;;;;0.00;0.00;;;36.70;19.40;;;;;;5099587;28;20059;-87
2021/09/05 10:38:51;;;;;;;0.17;0.17;;;37.30;22.00;;;;;;5101132;27;20395;-85
2021/09/05 10:41:20;;;;;;;0.75;0.20;;;36.10;24.50;;;;;;5099059;28;20063;-86
2021/09/05 10:43:49;;;;;;;0.10;0.10;;;34.10;29.20;;;;;;5096546;28;20585;-87
2021/09/05 10:46:23;;;;;;;0.10;0.10;;;32.40;33.80;;;;;;5099072;28;20042;-88
2021/09/05 10:48:55;;;;;;;0.00;0.00;;;30.50;33.60;;;;;;5097019;28;20034;-85
2021/09/05 10:51:25;;;;;;;0.00;0.00;;;29.20;40.00;;;;;;5095432;28;20122;-86
2021/09/05 10:53:56;;;;;;;0.00;0.00;;;28.80;40.80;;;;;;5099187;27;20061;-86
2021/09/05 10:56:24;;;;;;;0.00;0.00;;;29.10;42.80;;;;;;5095984;28;20027;-87
2021/09/05 10:58:56;;;;;;;0.00;0.00;;;29.70;39.30;;;;;;5098853;28;20035;-89
2021/09/05 11:01:24;;;;;;;0.05;0.05;;;30.10;38.40;;;;;;5103317;28;20032;-91
2021/09/05 11:04:12;;;;;;;0.38;0.38;;;29.90;38.50;;;;;;5105465;28;20035;-90
2021/09/05 11:07:05;;;;;;;0.00;0.00;;;29.80;42.10;;;;;;5106280;28;20095;-91
2021/09/05 11:09:31;;;;;;;0.20;0.20;;;29.60;39.70;;;;;;5103211;28;20034;-92
2021/09/05 11:12:09;;;;;;;0.10;0.10;;;29.30;42.00;;;;;;5103657;28;20027;-92
2021/09/05 11:14:37;;;;;;;0.08;0.08;;;29.20;43.30;;;;;;5101670;28;20032;-89
2021/09/05 11:17:11;;;;;;;0.13;0.13;;;29.00;44.70;;;;;;5098055;28;20452;-89
2021/09/05 11:19:43;;;;;;;0.00;0.00;;;29.40;42.80;;;;;;5103634;28;20594;-90
2021/09/05 11:22:12;;;;;;;0.00;0.00;;;28.70;42.70;;;;;;5107840;27;20107;-91
2021/09/05 11:24:39;;;;;;;0.17;0.17;;;28.50;44.50;;;;;;5103633;28;20424;-89
2021/09/05 11:27:07;;;;;;;0.10;0.10;;;28.60;44.80;;;;;;5103368;28;20024;-89
2021/09/05 11:29:35;;;;;;;1.15;0.28;;;28.90;45.90;;;;;;5102749;28;20057;-90
2021/09/05 11:32:01;;;;;;;0.77;0.10;;;29.30;43.80;;;;;;5101042;28;20032;-92
2021/09/05 11:34:27;;;;;;;;;;;29.30;44.90;;;;;;5102854;28;20031;-93
2021/09/05 11:36:53;;;;;;;0.35;0.10;;;28.50;45.10;;;;;;5099302;28;19916;-91
2021/09/05 11:39:19;;;;;;;;;;;27.90;46.80;;;;;;5090280;28;20040;-88
2021/09/05 11:41:45;;;;;;;0.30;0.30;;;27.70;47.60;;;;;;5124147;27;21185;-89
2021/09/05 11:44:10;;;;;;;0.10;0.10;;;27.60;45.20;;;;;;5092799;28;20123;-86
2021/09/05 11:46:36;;;;;;;0.03;0.03;;;27.40;45.70;;;;;;5093532;28;20695;-89
2021/09/05 11:49:03;;;;;;;0.00;0.00;;;27.40;45.20;;;;;;5094297;28;20602;-91
2021/09/05 11:51:30;;;;;;;0.38;0.15;;;27.60;46.60;;;;;;5104434;28;20042;-90
2021/09/05 11:54:00;;;;;;;0.43;0.30;;;27.40;46.00;;;;;;5091906;28;20054;-90
2021/09/05 11:56:29;;;;;;;0.30;0.22;;;26.90;58.10;;;;;;5095732;28;20024;-90
2021/09/05 11:58:54;;;;;;;0.10;0.10;;;26.90;46.90;;;;;;5096559;28;20028;-89
2021/09/05 12:01:20;;;;;;;0.10;0.03;;;26.90;46.50;;;;;;5094737;28;20036;-89
2021/09/05 12:03:46;;;;;;;0.10;0.05;;;27.00;45.90;;;;;;5097534;28;20032;-89
2021/09/05 12:06:12;;;;;;;0.00;0.00;;;27.40;48.00;;;;;;5094431;28;20020;-88
2021/09/05 12:08:39;;;;;;;0.00;0.00;;;27.50;46.70;;;;;;5096634;28;20027;-87
2021/09/05 12:11:07;;;;;;;0.10;0.10;;;26.90;46.10;;;;;;5097516;28;20089;-88
2021/09/05 12:14:05;;;;;;;0.17;0.17;;;26.90;45.60;;;;;;5099035;28;20931;-89
2021/09/05 12:16:31;;;;;;;0.10;0.10;;;27.30;45.60;;;;;;5027963;28;20040;-90
2021/09/05 12:19:07;;;;;;;0.43;0.43;;;27.50;45.60;;;;;;5053223;28;20098;-91
2021/09/05 12:21:36;;;;;;;0.00;0.00;;;27.50;45.70;;;;;;5054213;28;20024;-92
2021/09/05 12:24:03;;;;;;;0.15;0.15;;;27.40;43.30;;;;;;5041307;28;20082;-90
2021/09/05 12:26:36;;;;;;;0.10;0.10;;;27.00;42.80;;;;;;5058386;28;20029;-88
2021/09/05 12:29:02;;;;;;;0.38;0.30;;;27.30;43.30;;;;;;5042710;28;20043;-89
2021/09/05 12:31:42;;;;;;;0.40;0.40;;;27.30;42.90;;;;;;5059626;28;20033;-88
2021/09/05 12:34:09;;;;;;;0.10;0.10;;;27.30;42.60;;;;;;5059024;28;20074;-89
2021/09/05 12:36:35;;;;;;;0.10;0.10;;;27.40;42.50;;;;;;5060356;28;20074;-89
2021/09/05 12:39:01;;;;;;;0.13;0.10;;;27.30;41.30;;;;;;5061687;28;20036;-89
2021/09/05 12:41:31;;;;;;;0.10;0.10;;;27.20;42.00;;;;;;5045460;28;20033;-89
2021/09/05 12:43:59;;;;;;;0.10;0.00;;;27.10;42.30;;;;;;5061929;28;20144;-90
2021/09/05 12:46:39;;;;;;;0.20;0.20;;;27.20;41.90;;;;;;5059930;28;20050;-88
2021/09/05 12:49:12;;;;;;;0.10;0.10;;;27.00;43.10;;;;;;5059204;28;20033;-91
2021/09/05 12:51:50;;;;;;;0.00;0.00;;;26.90;41.80;;;;;;5073395;28;20387;-88